createdAt,value
2022-08-03T00:02:24.431Z,93.90
2022-08-03T00:07:27.350Z,96.70
2022-08-03T00:12:31.572Z,99.00
2022-08-03T00:17:52.630Z,99.90
2022-08-03T00:22:56.728Z,99.90
2022-08-03T00:28:00.975Z,99.90
2022-08-03T00:33:04.419Z,99.90
2022-08-03T00:38:07.491Z,99.90
2022-08-03T00:43:11.822Z,99.90
2022-08-03T00:48:23.295Z,99.90
2022-08-03T00:53:37.308Z,99.90
2022-08-03T00:58:41.607Z,99.90
2022-08-03T01:03:44.508Z,99.90
2022-08-03T01:09:01.266Z,99.90
2022-08-03T01:14:18.244Z,99.90
2022-08-03T01:19:40.389Z,99.90
2022-08-03T01:24:51.598Z,99.90
2022-08-03T01:30:06.414Z,99.90
2022-08-03T01:35:12.147Z,99.90
2022-08-03T01:40:16.606Z,99.90
2022-08-03T01:45:23.254Z,99.90
2022-08-03T01:50:28.748Z,99.90
2022-08-03T01:55:33.904Z,99.90
2022-08-03T02:00:39.502Z,99.90
2022-08-03T02:05:44.422Z,99.90
2022-08-03T02:10:48.713Z,99.90
2022-08-03T02:15:54.269Z,99.90
2022-08-03T02:20:58.037Z,99.90
2022-08-03T02:26:05.731Z,99.90
2022-08-03T02:31:16.446Z,99.90
2022-08-03T02:36:25.259Z,99.90
2022-08-03T02:41:32.715Z,99.90
2022-08-03T02:46:40.716Z,99.90
2022-08-03T02:51:46.038Z,99.90
2022-08-03T02:56:49.832Z,99.90
2022-08-03T03:01:56.006Z,99.90
2022-08-03T03:07:00.133Z,99.90
2022-08-03T03:12:07.108Z,99.90
2022-08-03T03:17:13.108Z,99.90
2022-08-03T03:22:18.095Z,99.90
2022-08-03T03:27:21.667Z,99.90
2022-08-03T03:32:27.870Z,99.90
2022-08-03T03:37:30.974Z,99.90
2022-08-03T03:42:34.003Z,99.90
2022-08-03T03:47:38.999Z,99.90
2022-08-03T03:52:42.259Z,99.90
2022-08-03T03:57:45.183Z,99.90
2022-08-03T04:02:49.644Z,99.90
2022-08-03T04:08:16.556Z,99.90
2022-08-03T04:13:21.827Z,99.90
2022-08-03T04:18:29.724Z,99.90
2022-08-03T04:23:36.744Z,99.90
2022-08-03T04:28:42.025Z,99.90
2022-08-03T04:33:47.241Z,99.90
2022-08-03T04:39:00.389Z,99.90
2022-08-03T04:44:05.826Z,99.90
2022-08-03T04:49:11.252Z,99.90
2022-08-03T04:54:16.057Z,99.90
2022-08-03T04:59:19.077Z,99.90
2022-08-03T05:04:23.348Z,99.90
2022-08-03T05:09:49.928Z,99.90
2022-08-03T05:14:53.441Z,99.90
2022-08-03T05:19:57.879Z,99.90
2022-08-03T05:25:02.287Z,99.90
2022-08-03T05:30:30.937Z,99.90
2022-08-03T05:36:01.382Z,99.90
2022-08-03T05:41:20.263Z,99.90
2022-08-03T05:46:24.465Z,99.90
2022-08-03T05:51:28.947Z,99.90
2022-08-03T05:56:32.376Z,99.90
2022-08-03T06:01:35.355Z,99.90
2022-08-03T06:06:39.794Z,99.90
2022-08-03T06:11:42.710Z,99.90
2022-08-03T06:16:48.878Z,99.90
2022-08-03T06:21:53.230Z,99.90
2022-08-03T06:27:07.233Z,99.90
2022-08-03T06:32:10.173Z,99.90
2022-08-03T06:37:14.532Z,99.90
2022-08-03T06:42:17.702Z,99.90
2022-08-03T06:47:20.916Z,99.90
2022-08-03T06:52:37.544Z,99.90
2022-08-03T06:57:41.683Z,99.90
2022-08-03T07:02:44.707Z,99.90
2022-08-03T07:07:49.222Z,99.90
2022-08-03T07:12:56.161Z,99.90
2022-08-03T07:18:14.983Z,99.90
2022-08-03T07:23:19.481Z,99.90
2022-08-03T07:28:22.584Z,99.90
2022-08-03T07:33:25.615Z,99.90
2022-08-03T07:38:30.169Z,99.90
2022-08-03T07:43:33.068Z,99.90
2022-08-03T07:48:35.972Z,99.90
2022-08-03T07:53:47.822Z,99.90
2022-08-03T07:58:51.416Z,99.90
2022-08-03T08:03:54.314Z,99.90
2022-08-03T08:09:01.725Z,99.90
2022-08-03T08:14:05.440Z,99.90
2022-08-03T08:19:08.371Z,99.90
2022-08-03T08:24:18.283Z,99.90
2022-08-03T08:29:23.233Z,99.90
2022-08-03T08:34:26.192Z,99.90
2022-08-03T08:39:30.500Z,99.90
2022-08-03T08:44:33.538Z,99.90
2022-08-03T08:49:49.357Z,99.90
2022-08-03T08:55:05.017Z,99.90
2022-08-03T09:00:14.248Z,99.90
2022-08-03T09:05:22.529Z,99.90
2022-08-03T09:10:38.010Z,99.90
2022-08-03T09:15:42.420Z,99.90
2022-08-03T09:21:30.516Z,99.90
2022-08-03T09:26:38.641Z,99.90
2022-08-03T09:31:44.210Z,99.90
2022-08-03T09:36:49.181Z,99.90
2022-08-03T09:42:07.031Z,99.90
2022-08-03T09:47:11.157Z,99.90
2022-08-03T09:52:39.470Z,99.90
2022-08-03T09:57:41.010Z,99.90
2022-08-03T10:02:50.645Z,99.90
2022-08-03T10:07:53.542Z,99.90
2022-08-03T10:12:58.037Z,99.70
2022-08-03T10:18:01.207Z,99.00
2022-08-03T10:23:04.527Z,98.60
2022-08-03T10:28:11.419Z,97.60
2022-08-03T10:33:51.253Z,97.00
2022-08-03T10:38:46.080Z,96.20
2022-08-03T10:43:53.892Z,95.40
2022-08-03T10:48:58.180Z,94.60
2022-08-03T10:54:01.519Z,94.30
2022-08-03T10:59:06.300Z,93.90
2022-08-03T11:04:22.192Z,93.30
2022-08-03T11:09:25.198Z,92.70
2022-08-03T11:14:30.014Z,92.30
2022-08-03T11:19:57.950Z,91.80
2022-08-03T11:25:01.803Z,91.80
2022-08-03T11:30:09.036Z,91.60
2022-08-03T11:35:13.816Z,90.80
2022-08-03T11:40:35.000Z,90.40
2022-08-03T11:45:39.701Z,90.00
2022-08-03T11:50:45.250Z,89.70
2022-08-03T11:55:49.864Z,88.70
2022-08-03T12:00:54.324Z,87.90
2022-08-03T12:05:57.281Z,87.00
2022-08-03T12:11:03.079Z,85.80
2022-08-03T12:16:07.909Z,84.60
2022-08-03T12:21:12.303Z,83.80
2022-08-03T12:26:15.501Z,82.80
2022-08-03T12:31:20.136Z,81.70
2022-08-03T12:36:23.568Z,81.10
2022-08-03T12:41:31.398Z,80.60
2022-08-03T12:46:37.108Z,80.40
2022-08-03T12:51:57.859Z,79.90
2022-08-03T12:57:02.215Z,78.80
2022-08-03T13:02:09.789Z,78.00
2022-08-03T13:07:14.444Z,77.70
2022-08-03T13:12:18.906Z,78.30
2022-08-03T13:17:23.238Z,78.00
2022-08-03T13:22:28.890Z,76.90
2022-08-03T13:28:03.863Z,76.10
2022-08-03T13:32:58.478Z,75.30
2022-08-03T13:38:01.900Z,74.40
2022-08-03T13:43:04.951Z,73.50
2022-08-03T13:48:09.388Z,72.80
2022-08-03T13:53:13.328Z,72.10
2022-08-03T13:58:16.576Z,71.50
2022-08-03T14:03:21.354Z,71.50
2022-08-03T14:08:24.602Z,70.70
2022-08-03T14:13:27.699Z,70.30
2022-08-03T14:18:33.853Z,69.50
2022-08-03T14:23:38.546Z,68.80
2022-08-03T14:28:41.852Z,68.40
2022-08-03T14:33:46.161Z,68.00
2022-08-03T14:38:49.205Z,67.60
2022-08-03T14:44:01.098Z,67.10
2022-08-03T14:50:34.416Z,66.40
2022-08-03T14:54:46.071Z,65.80
2022-08-03T14:59:57.451Z,65.30
2022-08-03T15:10:20.130Z,64.30
2022-08-03T15:16:11.549Z,64.00
2022-08-03T15:21:20.793Z,63.70
2022-08-03T15:26:41.816Z,62.80
2022-08-03T15:31:55.831Z,62.10
2022-08-03T15:37:00.501Z,61.60
2022-08-03T15:42:03.938Z,61.10
2022-08-03T15:47:07.289Z,61.70
2022-08-03T15:52:15.631Z,60.80
2022-08-03T15:57:19.066Z,60.50
2022-08-03T16:02:22.342Z,60.00
2022-08-03T16:07:40.738Z,59.70
2022-08-03T16:13:10.911Z,59.30
2022-08-03T16:18:14.748Z,59.20
2022-08-03T16:23:21.935Z,59.20
2022-08-03T16:28:31.161Z,59.00
2022-08-03T16:33:34.814Z,58.60
2022-08-03T16:38:40.891Z,58.30
2022-08-03T16:43:46.597Z,58.50
2022-08-03T16:48:49.760Z,58.20
2022-08-03T16:54:07.234Z,58.10
2022-08-03T16:59:15.496Z,57.70
2022-08-03T17:04:18.653Z,57.80
2022-08-03T17:09:23.243Z,57.50
2022-08-03T17:14:28.466Z,57.40
2022-08-03T17:19:34.957Z,57.30
2022-08-03T17:24:45.280Z,57.20
2022-08-03T17:29:51.601Z,57.10
2022-08-03T17:34:57.673Z,56.80
2022-08-03T17:40:03.899Z,56.80
2022-08-03T17:45:15.567Z,56.80
2022-08-03T17:50:23.562Z,56.90
2022-08-03T17:55:57.601Z,57.00
2022-08-03T18:01:59.842Z,56.80
2022-08-03T18:06:59.839Z,56.60
2022-08-03T18:12:15.143Z,56.60
2022-08-03T18:17:54.942Z,56.40
2022-08-03T18:28:50.664Z,56.50
2022-08-03T18:34:16.748Z,56.70
2022-08-03T18:39:17.968Z,56.80
2022-08-03T18:44:53.510Z,56.50
2022-08-03T18:50:07.018Z,56.40
2022-08-03T18:55:20.648Z,56.00
2022-08-03T19:00:54.454Z,55.60
2022-08-03T19:06:13.319Z,55.30
2022-08-03T19:11:28.043Z,55.10
2022-08-03T19:16:38.848Z,55.20
2022-08-03T19:22:11.559Z,55.30
2022-08-03T19:27:16.101Z,55.60
2022-08-03T19:32:20.862Z,55.40
2022-08-03T19:37:24.045Z,55.60
2022-08-03T19:42:45.432Z,55.80
2022-08-03T19:47:54.541Z,55.90
2022-08-03T19:52:58.312Z,55.80
2022-08-03T19:58:03.967Z,55.70
2022-08-03T20:03:18.257Z,55.70
2022-08-03T20:08:27.262Z,55.70
2022-08-03T20:13:32.206Z,55.80
2022-08-03T20:18:43.650Z,56.10
2022-08-03T20:24:01.630Z,56.40
2022-08-03T20:29:10.242Z,56.40
2022-08-03T20:34:17.554Z,56.50
2022-08-03T20:39:20.749Z,56.90
2022-08-03T20:44:26.832Z,56.40
2022-08-03T20:49:45.913Z,56.80
2022-08-03T20:54:49.818Z,57.20
2022-08-03T20:59:53.782Z,57.70
2022-08-03T21:05:03.682Z,58.10
2022-08-03T21:10:15.383Z,58.30
2022-08-03T21:13:04.599Z,56.00
2022-08-03T21:16:02.492Z,58.80
2022-08-03T21:20:48.006Z,59.20
2022-08-03T21:25:52.034Z,59.60
2022-08-03T21:30:55.727Z,59.70
2022-08-03T21:36:01.880Z,60.00
2022-08-03T21:41:08.795Z,61.20
2022-08-03T21:46:14.009Z,61.90
2022-08-03T21:51:20.925Z,62.50
2022-08-03T21:56:27.055Z,62.70
2022-08-03T22:01:35.382Z,63.10
2022-08-03T22:06:42.429Z,62.70
2022-08-03T22:11:47.930Z,63.70
2022-08-03T22:16:50.939Z,64.60
2022-08-03T22:21:55.483Z,65.10
2022-08-03T22:27:16.655Z,65.50
2022-08-03T22:32:19.657Z,65.90
2022-08-03T22:37:27.727Z,67.00
2022-08-03T22:42:35.138Z,66.20
2022-08-03T22:47:40.652Z,68.70
2022-08-03T22:52:45.840Z,68.90
2022-08-03T22:57:50.956Z,69.10
2022-08-03T23:03:03.126Z,69.90
2022-08-03T23:08:10.624Z,70.90
2022-08-03T23:13:14.303Z,71.20
2022-08-03T23:18:17.934Z,71.60
2022-08-03T23:23:22.202Z,72.20
2022-08-03T23:28:27.308Z,72.90
2022-08-03T23:33:31.668Z,73.40
2022-08-03T23:38:37.705Z,74.30
2022-08-03T23:43:52.396Z,75.30
2022-08-03T23:48:58.437Z,77.80
2022-08-03T23:54:10.803Z,78.70
2022-08-03T23:59:22.589Z,79.60
